Time;durP1;ratioP1;P1;durP2;ratioP2;P2;SDS_P1;SDS_P2;PMS_P1;PMS_P2;Temp;Humidity;BMP_temperature;BMP_pressure;BME280_temperature;BME280_humidity;BME280_pressure;Samples;Min_cycle;Max_cycle;Signal;HPM_P1;HPM_P2
2022/05/10 00:07:03;;;;;;;6.1;12.2;;;;;;;-133;84.1;65250;;;;
2022/05/10 00:18:03;;;;;;;6.1;12.2;;;;;;;-133;84.6;65250;;;;
2022/05/10 00:29:03;;;;;;;5.6;8.4;;;;;;;-133;84.2;65250;;;;
2022/05/10 00:40:03;;;;;;;5.6;8.4;;;;;;;-133;84.2;65250;;;;
2022/05/10 00:51:03;;;;;;;5.6;8.4;;;;;;;-133;85;65250;;;;
2022/05/10 01:01:03;;;;;;;6.2;10.3;;;;;;;-133;85.5;65250;;;;
2022/05/10 01:12:03;;;;;;;6.2;10.3;;;;;;;-133;85.5;65250;;;;
2022/05/10 01:22:03;;;;;;;6.2;10.3;;;;;;;-133;87;65260;;;;
2022/05/10 01:33:35;;;;;;;6.9;11;;;;;;;-133;85.6;65250;;;;
2022/05/10 01:44:03;;;;;;;6.9;11;;;;;;;-133;85.9;65250;;;;
2022/05/10 01:54:04;;;;;;;6.9;11;;;;;;;-133;86.5;65240;;;;
2022/05/10 02:05:03;;;;;;;6.3;11;;;;;;;-133;86.4;65250;;;;
2022/05/10 02:15:03;;;;;;;6.3;11;;;;;;;-133;86.8;65250;;;;
2022/05/10 02:26:03;;;;;;;6.3;11;;;;;;;-133;89.2;65250;;;;
2022/05/10 02:36:03;;;;;;;5.8;9.3;;;;;;;-133;89;65250;;;;
2022/05/10 02:46:03;;;;;;;5.8;9.3;;;;;;;-133;88.6;65250;;;;
2022/05/10 02:57:03;;;;;;;5.8;9.3;;;;;;;-133;87.3;65250;;;;
2022/05/10 03:08:05;;;;;;;6.2;10.3;;;;;;;-133;86.9;65250;;;;
2022/05/10 03:19:04;;;;;;;6.2;10.3;;;;;;;-133;87.5;65250;;;;
2022/05/10 03:30:04;;;;;;;6.7;10.3;;;;;;;-133;86.7;65250;;;;
2022/05/10 03:40:03;;;;;;;6.7;10.3;;;;;;;-133;86.5;65250;;;;
2022/05/10 03:51:03;;;;;;;6.7;10.3;;;;;;;-133;86.4;65250;;;;
2022/05/10 04:01:05;;;;;;;6.1;9.6;;;;;;;-133;86.6;65250;;;;
2022/05/10 04:11:03;;;;;;;6.1;9.6;;;;;;;-133;88.1;65250;;;;
2022/05/10 04:21:03;;;;;;;6.1;9.6;;;;;;;-133;90.3;65250;;;;
2022/05/10 04:31:04;;;;;;;7.2;12.1;;;;;;;-133;89.5;65240;;;;
2022/05/10 04:42:03;;;;;;;7.2;12.1;;;;;;;-133;88.5;65240;;;;
2022/05/10 04:52:04;;;;;;;7.2;12.1;;;;;;;-133;85.5;65240;;;;
2022/05/10 05:03:03;;;;;;;6.4;9.5;;;;;;;-133;82.4;65250;;;;
2022/05/10 05:13:03;;;;;;;6.4;9.5;;;;;;;-133;80.4;65240;;;;
2022/05/10 05:24:04;;;;;;;6.4;9.5;;;;;;;-133;79.5;65240;;;;
2022/05/10 05:35:03;;;;;;;6.2;9.3;;;;;;;-133;78.1;65240;;;;
2022/05/10 05:45:04;;;;;;;6.2;9.3;;;;;;;-133;75.4;65240;;;;
2022/05/10 05:56:04;;;;;;;6.2;9.3;;;;;;;-133;75.3;65240;;;;
2022/05/10 06:06:04;;;;;;;5.1;9.6;;;;;;;-133;75.3;65240;;;;
2022/05/10 06:17:03;;;;;;;5.1;9.6;;;;;;;-133;72.3;65240;;;;
2022/05/10 06:27:04;;;;;;;5.2;9.3;;;;;;;-133;72.5;65230;;;;
2022/05/10 06:38:24;;;;;;;5.2;9.3;;;;;;;-133;70.5;65240;;;;
2022/05/10 06:49:04;;;;;;;5.2;9.3;;;;;;;-133;69.9;65230;;;;
2022/05/10 07:00:03;;;;;;;4.4;9.5;;;;;;;-133;67.8;65230;;;;
2022/05/10 07:10:04;;;;;;;4.4;9.5;;;;;;;-133;67.9;65230;;;;
2022/05/10 07:20:04;;;;;;;4.4;9.5;;;;;;;-133;65.8;65230;;;;
2022/05/10 07:31:03;;;;;;;5.3;13.6;;;;;;;-133;64.8;65230;;;;
2022/05/10 07:41:03;;;;;;;5.3;13.6;;;;;;;-133;65;65230;;;;
2022/05/10 07:52:04;;;;;;;5.3;13.6;;;;;;;-133;63;65220;;;;
2022/05/10 08:03:03;;;;;;;6.9;11.7;;;;;;;-133;62.4;65220;;;;
2022/05/10 08:13:03;;;;;;;6.9;11.7;;;;;;;-133;61.1;65220;;;;
2022/05/10 08:23:04;;;;;;;6.9;11.7;;;;;;;-133;59.9;65220;;;;
2022/05/10 08:33:04;;;;;;;3.7;7.1;;;;;;;-133;61.6;65220;;;;
2022/05/10 08:43:04;;;;;;;3.7;7.1;;;;;;;-133;56.9;65230;;;;
2022/05/10 08:54:03;;;;;;;3.7;7.1;;;;;;;-133;52.1;65220;;;;
2022/05/10 09:04:05;;;;;;;5.1;12.9;;;;;;;-133;51.2;65220;;;;
2022/05/10 09:14:04;;;;;;;5.1;12.9;;;;;;;-133;48;65220;;;;
2022/05/10 09:25:04;;;;;;;5.1;12.9;;;;;;;-133;49.2;65220;;;;
2022/05/10 09:35:04;;;;;;;3.1;8.5;;;;;;;-133;46.1;65220;;;;
2022/05/10 09:46:04;;;;;;;3.1;8.5;;;;;;;-133;44.9;65220;;;;
2022/05/10 09:56:04;;;;;;;3.1;8.5;;;;;;;-133;47.1;65220;;;;
2022/05/10 10:07:04;;;;;;;2.5;6.3;;;;;;;-133;45;65220;;;;
2022/05/10 10:17:04;;;;;;;2.5;6.3;;;;;;;-133;45.6;65220;;;;
2022/05/10 10:28:04;;;;;;;3.1;5.7;;;;;;;-133;43.8;65220;;;;
2022/05/10 10:38:06;;;;;;;3.1;5.7;;;;;;;-133;43.6;65220;;;;
2022/05/10 10:48:04;;;;;;;3.1;5.7;;;;;;;-133;41;65220;;;;
2022/05/10 10:59:04;;;;;;;2.5;5.9;;;;;;;-133;41;65220;;;;
2022/05/10 11:10:04;;;;;;;2.5;5.9;;;;;;;-133;39.3;65230;;;;
2022/05/10 11:21:04;;;;;;;2.5;5.9;;;;;;;-133;39.3;65220;;;;
2022/05/10 11:32:03;;;;;;;10.9;31.9;;;;;;;-133;36.8;65220;;;;
2022/05/10 11:42:04;;;;;;;10.9;31.9;;;;;;;-133;39.2;65220;;;;
2022/05/10 11:53:04;;;;;;;10.9;31.9;;;;;;;-133;39.9;65220;;;;
2022/05/10 12:03:04;;;;;;;2.2;4.5;;;;;;;-133;36.3;65220;;;;
2022/05/10 12:24:04;;;;;;;2.2;4.5;;;;;;;-133;36.9;65220;;;;
2022/05/10 12:35:04;;;;;;;2.2;5.3;;;;;;;-133;35.2;65220;;;;
2022/05/10 12:46:04;;;;;;;2.2;5.3;;;;;;;-133;36.7;65230;;;;
2022/05/10 12:57:06;;;;;;;2.6;5.5;;;;;;;-133;34.8;65220;;;;
2022/05/10 13:07:04;;;;;;;2.6;5.5;;;;;;;-133;34.8;65220;;;;
2022/05/10 13:18:04;;;;;;;2.6;5.5;;;;;;;-133;33.2;65230;;;;
2022/05/10 13:28:04;;;;;;;2.6;6.4;;;;;;;-133;35.3;65230;;;;
2022/05/10 13:38:04;;;;;;;2.6;6.4;;;;;;;-133;32.9;65230;;;;
2022/05/10 13:49:04;;;;;;;2.6;6.4;;;;;;;-133;33.6;65230;;;;
2022/05/10 14:00:04;;;;;;;2.3;6.4;;;;;;;-133;31.9;65230;;;;
2022/05/10 14:10:04;;;;;;;2.3;6.4;;;;;;;-133;32.3;65230;;;;
2022/05/10 14:20:13;;;;;;;2.3;6.4;;;;;;;-133;31.5;65230;;;;
2022/05/10 14:31:04;;;;;;;2.5;7.2;;;;;;;-133;31;65230;;;;
2022/05/10 14:41:04;;;;;;;2.5;7.2;;;;;;;-133;33.5;65230;;;;
2022/05/10 14:52:04;;;;;;;2.5;7.2;;;;;;;-133;29.3;65230;;;;
2022/05/10 15:03:04;;;;;;;2.3;4.9;;;;;;;-133;29.2;65230;;;;
2022/05/10 15:13:04;;;;;;;2.3;4.9;;;;;;;-133;25.7;65220;;;;
2022/05/10 15:23:04;;;;;;;2.3;4.9;;;;;;;-133;22.6;65220;;;;
2022/05/10 15:33:04;;;;;;;2.2;5.9;;;;;;;-133;21.3;65220;;;;
2022/05/10 15:44:04;;;;;;;2.2;5.9;;;;;;;-133;19.8;65220;;;;
2022/05/10 15:54:04;;;;;;;2.2;5.9;;;;;;;-133;18.5;65230;;;;
2022/05/10 16:04:04;;;;;;;2;5.8;;;;;;;-133;19.3;65230;;;;
2022/05/10 16:14:04;;;;;;;2;5.8;;;;;;;-133;22.9;65230;;;;
2022/05/10 16:24:04;;;;;;;2;5.8;;;;;;;-133;23.9;65230;;;;
2022/05/10 16:34:04;;;;;;;7.9;13;;;;;;;-133;23.7;65230;;;;
2022/05/10 16:44:05;;;;;;;7.9;13;;;;;;;-133;25.7;65230;;;;
2022/05/10 16:54:11;;;;;;;7.9;13;;;;;;;-133;25.7;65230;;;;
2022/05/10 17:05:07;;;;;;;2.8;7.4;;;;;;;-133;28.6;65240;;;;
2022/05/10 17:16:06;;;;;;;2.8;7.4;;;;;;;-133;31.1;65240;;;;
2022/05/10 17:26:05;;;;;;;2.8;7.4;;;;;;;-133;33.3;65250;;;;
2022/05/10 17:37:04;;;;;;;2.6;10.3;;;;;;;-133;35.1;65250;;;;
2022/05/10 17:47:04;;;;;;;2.6;10.3;;;;;;;-133;37.1;65250;;;;
2022/05/10 17:57:04;;;;;;;3.6;7.6;;;;;;;-133;38.9;65250;;;;
2022/05/10 18:07:04;;;;;;;3.6;7.6;;;;;;;-133;42.1;65250;;;;
2022/05/10 18:18:04;;;;;;;3.6;7.6;;;;;;;-133;46.2;65250;;;;
2022/05/10 18:29:05;;;;;;;4;7.3;;;;;;;-133;50.3;65250;;;;
2022/05/10 18:39:04;;;;;;;4;7.3;;;;;;;-133;52.1;65260;;;;
2022/05/10 18:49:04;;;;;;;4;7.3;;;;;;;-133;53.6;65260;;;;
2022/05/10 18:59:04;;;;;;;5.6;12.2;;;;;;;-133;54;65260;;;;
2022/05/10 19:09:04;;;;;;;5.6;12.2;;;;;;;-133;54;65260;;;;
2022/05/10 19:19:04;;;;;;;5.6;12.2;;;;;;;-133;54.3;65260;;;;
2022/05/10 19:29:04;;;;;;;4.3;8.6;;;;;;;-133;54.1;65250;;;;
2022/05/10 19:39:04;;;;;;;4.3;8.6;;;;;;;-133;55;65260;;;;
2022/05/10 19:49:04;;;;;;;4.3;8.6;;;;;;;-133;55.2;65250;;;;
2022/05/10 20:00:04;;;;;;;5.3;8.9;;;;;;;-133;57.4;65260;;;;
2022/05/10 20:10:04;;;;;;;5.3;8.9;;;;;;;-133;57.2;65260;;;;
2022/05/10 20:21:07;;;;;;;5.3;8.9;;;;;;;-133;57.3;65260;;;;
2022/05/10 20:32:04;;;;;;;5.9;8.9;;;;;;;-133;59.9;65260;;;;
2022/05/10 20:42:04;;;;;;;5.9;8.9;;;;;;;-133;61.8;65260;;;;
2022/05/10 20:52:04;;;;;;;5.9;8.9;;;;;;;-133;62.7;65260;;;;
2022/05/10 21:03:04;;;;;;;9.9;13.3;;;;;;;-133;65.4;65270;;;;
2022/05/10 21:13:06;;;;;;;9.9;13.3;;;;;;;-133;66.7;65260;;;;
2022/05/10 21:24:04;;;;;;;9.9;13.3;;;;;;;-133;69.6;65260;;;;
2022/05/10 21:34:04;;;;;;;9;13.5;;;;;;;-133;71;65260;;;;
2022/05/10 21:45:04;;;;;;;9;13.5;;;;;;;-133;73.9;65260;;;;
2022/05/10 21:56:04;;;;;;;9;13.5;;;;;;;-133;77.7;65260;;;;
2022/05/10 22:06:04;;;;;;;13.2;20.3;;;;;;;-133;77.5;65260;;;;
2022/05/10 22:17:04;;;;;;;13.2;20.3;;;;;;;-133;81.2;65260;;;;
2022/05/10 22:28:04;;;;;;;15.5;23.7;;;;;;;-133;79.9;65270;;;;
2022/05/10 22:39:04;;;;;;;15.5;23.7;;;;;;;-133;81.1;65260;;;;
2022/05/10 22:49:04;;;;;;;15.5;23.7;;;;;;;-133;81.8;65260;;;;
2022/05/10 23:00:04;;;;;;;16;19.3;;;;;;;-133;80.9;65260;;;;
2022/05/10 23:10:04;;;;;;;16;19.3;;;;;;;-133;82.2;65260;;;;
2022/05/10 23:20:04;;;;;;;16;19.3;;;;;;;-133;81.7;65260;;;;
2022/05/10 23:31:04;;;;;;;14.8;18.4;;;;;;;-133;82.3;65260;;;;
2022/05/10 23:41:04;;;;;;;14.8;18.4;;;;;;;-133;84;65260;;;;
2022/05/10 23:52:04;;;;;;;14.8;18.4;;;;;;;-133;84.1;65260;;;;
